sensor_id;sensor_type;location;lat;lon;timestamp;P1;durP1;ratioP1;P2;durP2;ratioP2
26502;SDS011;14177;51.520;6.764;2023-07-31T00:00:06;37.40;;;8.07;;
26502;SDS011;14177;51.520;6.764;2023-07-31T00:02:36;30.88;;;7.57;;
26502;SDS011;14177;51.520;6.764;2023-07-31T00:05:03;33.60;;;7.20;;
26502;SDS011;14177;51.520;6.764;2023-07-31T00:07:31;48.40;;;8.82;;
26502;SDS011;14177;51.520;6.764;2023-07-31T00:09:59;34.95;;;7.68;;
26502;SDS011;14177;51.520;6.764;2023-07-31T00:12:26;34.30;;;6.95;;
26502;SDS011;14177;51.520;6.764;2023-07-31T00:14:53;37.75;;;8.10;;
26502;SDS011;14177;51.520;6.764;2023-07-31T00:17:20;35.42;;;8.20;;
26502;SDS011;14177;51.520;6.764;2023-07-31T00:19:47;37.95;;;8.50;;
26502;SDS011;14177;51.520;6.764;2023-07-31T00:22:16;30.48;;;6.35;;
26502;SDS011;14177;51.520;6.764;2023-07-31T00:24:43;32.45;;;7.45;;
26502;SDS011;14177;51.520;6.764;2023-07-31T00:27:10;35.55;;;6.85;;
26502;SDS011;14177;51.520;6.764;2023-07-31T00:29:37;34.55;;;7.68;;
26502;SDS011;14177;51.520;6.764;2023-07-31T00:32:04;29.90;;;6.57;;
26502;SDS011;14177;51.520;6.764;2023-07-31T00:34:32;34.20;;;7.22;;
26502;SDS011;14177;51.520;6.764;2023-07-31T00:36:59;30.55;;;7.13;;
26502;SDS011;14177;51.520;6.764;2023-07-31T00:39:26;41.28;;;8.90;;
26502;SDS011;14177;51.520;6.764;2023-07-31T00:41:53;34.38;;;7.50;;
26502;SDS011;14177;51.520;6.764;2023-07-31T00:44:20;31.88;;;6.30;;
26502;SDS011;14177;51.520;6.764;2023-07-31T00:46:47;33.50;;;7.60;;
26502;SDS011;14177;51.520;6.764;2023-07-31T00:49:15;30.75;;;7.13;;
26502;SDS011;14177;51.520;6.764;2023-07-31T00:51:42;36.70;;;8.52;;
26502;SDS011;14177;51.520;6.764;2023-07-31T00:54:10;36.70;;;7.50;;
26502;SDS011;14177;51.520;6.764;2023-07-31T00:56:38;31.58;;;6.93;;
26502;SDS011;14177;51.520;6.764;2023-07-31T00:59:07;33.78;;;7.00;;
26502;SDS011;14177;51.520;6.764;2023-07-31T01:01:34;38.78;;;8.38;;
26502;SDS011;14177;51.520;6.764;2023-07-31T01:04:02;32.63;;;6.47;;
26502;SDS011;14177;51.520;6.764;2023-07-31T01:10:02;29.13;;;8.20;;
26502;SDS011;14177;51.520;6.764;2023-07-31T01:12:42;40.40;;;8.03;;
26502;SDS011;14177;51.520;6.764;2023-07-31T01:15:13;38.25;;;7.93;;
26502;SDS011;14177;51.520;6.764;2023-07-31T01:17:42;37.90;;;7.78;;
26502;SDS011;14177;51.520;6.764;2023-07-31T01:26:12;28.25;;;6.28;;
26502;SDS011;14177;51.520;6.764;2023-07-31T01:29:03;29.10;;;6.15;;
26502;SDS011;14177;51.520;6.764;2023-07-31T01:31:57;28.45;;;6.55;;
26502;SDS011;14177;51.520;6.764;2023-07-31T01:34:29;35.38;;;6.90;;
26502;SDS011;14177;51.520;6.764;2023-07-31T01:36:58;27.98;;;6.35;;
26502;SDS011;14177;51.520;6.764;2023-07-31T01:39:25;32.88;;;7.88;;
26502;SDS011;14177;51.520;6.764;2023-07-31T01:41:52;26.85;;;8.00;;
26502;SDS011;14177;51.520;6.764;2023-07-31T01:44:19;33.40;;;7.60;;
26502;SDS011;14177;51.520;6.764;2023-07-31T01:46:46;37.30;;;8.15;;
26502;SDS011;14177;51.520;6.764;2023-07-31T01:49:13;33.40;;;7.70;;
26502;SDS011;14177;51.520;6.764;2023-07-31T01:51:41;38.72;;;7.68;;
26502;SDS011;14177;51.520;6.764;2023-07-31T01:54:08;28.88;;;6.38;;
26502;SDS011;14177;51.520;6.764;2023-07-31T01:56:35;35.28;;;6.45;;
26502;SDS011;14177;51.520;6.764;2023-07-31T01:59:02;25.55;;;5.78;;
26502;SDS011;14177;51.520;6.764;2023-07-31T02:01:29;30.83;;;5.88;;
26502;SDS011;14177;51.520;6.764;2023-07-31T02:03:57;25.98;;;6.22;;
26502;SDS011;14177;51.520;6.764;2023-07-31T02:06:24;31.73;;;6.82;;
26502;SDS011;14177;51.520;6.764;2023-07-31T02:08:51;32.78;;;7.30;;
26502;SDS011;14177;51.520;6.764;2023-07-31T02:11:18;41.80;;;8.23;;
26502;SDS011;14177;51.520;6.764;2023-07-31T02:13:48;26.73;;;7.40;;
26502;SDS011;14177;51.520;6.764;2023-07-31T02:16:15;30.20;;;6.18;;
26502;SDS011;14177;51.520;6.764;2023-07-31T02:18:43;28.38;;;7.22;;
26502;SDS011;14177;51.520;6.764;2023-07-31T02:21:09;27.45;;;6.45;;
26502;SDS011;14177;51.520;6.764;2023-07-31T02:23:36;32.40;;;7.05;;
26502;SDS011;14177;51.520;6.764;2023-07-31T02:26:04;32.70;;;7.43;;
26502;SDS011;14177;51.520;6.764;2023-07-31T02:28:31;30.95;;;6.03;;
26502;SDS011;14177;51.520;6.764;2023-07-31T02:30:58;32.63;;;7.55;;
26502;SDS011;14177;51.520;6.764;2023-07-31T02:33:26;28.67;;;6.30;;
26502;SDS011;14177;51.520;6.764;2023-07-31T02:35:53;30.48;;;6.95;;
26502;SDS011;14177;51.520;6.764;2023-07-31T02:38:21;27.75;;;6.10;;
26502;SDS011;14177;51.520;6.764;2023-07-31T02:40:48;29.17;;;7.85;;
26502;SDS011;14177;51.520;6.764;2023-07-31T02:43:15;31.30;;;6.28;;
26502;SDS011;14177;51.520;6.764;2023-07-31T02:45:42;27.48;;;6.68;;
26502;SDS011;14177;51.520;6.764;2023-07-31T02:48:10;28.60;;;6.55;;
26502;SDS011;14177;51.520;6.764;2023-07-31T02:50:37;24.27;;;6.28;;
26502;SDS011;14177;51.520;6.764;2023-07-31T02:53:04;26.27;;;6.30;;
26502;SDS011;14177;51.520;6.764;2023-07-31T02:55:31;26.63;;;5.95;;
26502;SDS011;14177;51.520;6.764;2023-07-31T02:57:58;24.05;;;6.00;;
26502;SDS011;14177;51.520;6.764;2023-07-31T03:00:25;23.95;;;6.07;;
26502;SDS011;14177;51.520;6.764;2023-07-31T03:02:52;28.25;;;6.53;;
26502;SDS011;14177;51.520;6.764;2023-07-31T03:05:19;32.03;;;6.53;;
26502;SDS011;14177;51.520;6.764;2023-07-31T03:07:46;27.90;;;6.28;;
26502;SDS011;14177;51.520;6.764;2023-07-31T03:10:13;31.65;;;7.72;;
26502;SDS011;14177;51.520;6.764;2023-07-31T03:12:40;26.27;;;6.30;;
26502;SDS011;14177;51.520;6.764;2023-07-31T03:15:09;26.08;;;5.95;;
26502;SDS011;14177;51.520;6.764;2023-07-31T03:17:36;32.95;;;6.88;;
26502;SDS011;14177;51.520;6.764;2023-07-31T03:20:03;30.63;;;7.35;;
26502;SDS011;14177;51.520;6.764;2023-07-31T03:22:31;27.73;;;5.57;;
26502;SDS011;14177;51.520;6.764;2023-07-31T03:24:58;28.42;;;7.35;;
26502;SDS011;14177;51.520;6.764;2023-07-31T03:27:25;27.40;;;6.57;;
26502;SDS011;14177;51.520;6.764;2023-07-31T03:29:52;25.92;;;6.75;;
26502;SDS011;14177;51.520;6.764;2023-07-31T03:32:19;31.00;;;6.50;;
26502;SDS011;14177;51.520;6.764;2023-07-31T03:34:46;27.63;;;6.07;;
26502;SDS011;14177;51.520;6.764;2023-07-31T03:37:13;31.05;;;6.03;;
26502;SDS011;14177;51.520;6.764;2023-07-31T03:39:40;30.38;;;6.60;;
26502;SDS011;14177;51.520;6.764;2023-07-31T03:42:06;23.50;;;6.10;;
26502;SDS011;14177;51.520;6.764;2023-07-31T03:44:34;24.92;;;6.13;;
26502;SDS011;14177;51.520;6.764;2023-07-31T03:47:01;25.15;;;6.63;;
26502;SDS011;14177;51.520;6.764;2023-07-31T03:49:28;34.25;;;7.53;;
26502;SDS011;14177;51.520;6.764;2023-07-31T03:51:55;28.15;;;7.28;;
26502;SDS011;14177;51.520;6.764;2023-07-31T03:54:22;31.73;;;7.47;;
26502;SDS011;14177;51.520;6.764;2023-07-31T03:56:49;29.67;;;7.55;;
26502;SDS011;14177;51.520;6.764;2023-07-31T03:59:16;52.33;;;13.48;;
26502;SDS011;14177;51.520;6.764;2023-07-31T04:01:43;47.90;;;12.15;;
26502;SDS011;14177;51.520;6.764;2023-07-31T04:04:10;50.08;;;11.82;;
26502;SDS011;14177;51.520;6.764;2023-07-31T04:06:37;48.65;;;10.05;;
26502;SDS011;14177;51.520;6.764;2023-07-31T04:09:04;28.75;;;7.97;;
26502;SDS011;14177;51.520;6.764;2023-07-31T04:11:31;33.85;;;6.90;;
26502;SDS011;14177;51.520;6.764;2023-07-31T04:13:58;25.00;;;6.07;;
26502;SDS011;14177;51.520;6.764;2023-07-31T04:16:25;21.95;;;5.47;;
26502;SDS011;14177;51.520;6.764;2023-07-31T04:18:52;25.70;;;6.35;;
26502;SDS011;14177;51.520;6.764;2023-07-31T04:21:18;27.73;;;6.13;;
26502;SDS011;14177;51.520;6.764;2023-07-31T04:23:45;29.52;;;6.05;;
26502;SDS011;14177;51.520;6.764;2023-07-31T04:26:12;31.05;;;6.68;;
26502;SDS011;14177;51.520;6.764;2023-07-31T04:28:39;23.88;;;5.97;;
26502;SDS011;14177;51.520;6.764;2023-07-31T04:31:06;30.63;;;7.55;;
26502;SDS011;14177;51.520;6.764;2023-07-31T04:33:33;34.95;;;7.53;;
26502;SDS011;14177;51.520;6.764;2023-07-31T04:36:00;36.53;;;7.32;;
26502;SDS011;14177;51.520;6.764;2023-07-31T04:38:27;31.45;;;7.97;;
26502;SDS011;14177;51.520;6.764;2023-07-31T04:40:54;39.35;;;10.55;;
26502;SDS011;14177;51.520;6.764;2023-07-31T04:43:21;34.30;;;9.07;;
26502;SDS011;14177;51.520;6.764;2023-07-31T04:45:48;29.85;;;7.18;;
26502;SDS011;14177;51.520;6.764;2023-07-31T04:48:16;28.30;;;6.63;;
26502;SDS011;14177;51.520;6.764;2023-07-31T04:50:43;33.47;;;7.32;;
26502;SDS011;14177;51.520;6.764;2023-07-31T04:53:10;29.70;;;8.52;;
26502;SDS011;14177;51.520;6.764;2023-07-31T04:55:37;27.60;;;6.75;;
26502;SDS011;14177;51.520;6.764;2023-07-31T04:58:04;28.65;;;7.43;;
26502;SDS011;14177;51.520;6.764;2023-07-31T05:00:31;32.08;;;7.47;;
26502;SDS011;14177;51.520;6.764;2023-07-31T05:02:58;32.63;;;7.72;;
26502;SDS011;14177;51.520;6.764;2023-07-31T05:05:26;25.23;;;6.10;;
26502;SDS011;14177;51.520;6.764;2023-07-31T05:07:52;26.88;;;6.88;;
26502;SDS011;14177;51.520;6.764;2023-07-31T05:10:19;29.75;;;6.88;;
26502;SDS011;14177;51.520;6.764;2023-07-31T05:12:46;26.27;;;6.55;;
26502;SDS011;14177;51.520;6.764;2023-07-31T05:15:14;30.65;;;7.70;;
26502;SDS011;14177;51.520;6.764;2023-07-31T05:17:42;28.25;;;7.18;;
26502;SDS011;14177;51.520;6.764;2023-07-31T05:20:09;26.58;;;8.05;;
26502;SDS011;14177;51.520;6.764;2023-07-31T05:22:36;32.40;;;6.93;;
26502;SDS011;14177;51.520;6.764;2023-07-31T05:25:03;36.38;;;8.68;;
26502;SDS011;14177;51.520;6.764;2023-07-31T05:27:31;34.25;;;7.47;;
26502;SDS011;14177;51.520;6.764;2023-07-31T05:29:58;29.70;;;7.53;;
26502;SDS011;14177;51.520;6.764;2023-07-31T05:32:26;25.55;;;7.30;;
26502;SDS011;14177;51.520;6.764;2023-07-31T05:34:53;25.45;;;6.55;;
26502;SDS011;14177;51.520;6.764;2023-07-31T05:37:20;24.67;;;6.68;;
26502;SDS011;14177;51.520;6.764;2023-07-31T05:39:48;34.42;;;8.45;;
26502;SDS011;14177;51.520;6.764;2023-07-31T05:42:15;27.52;;;7.40;;
26502;SDS011;14177;51.520;6.764;2023-07-31T05:44:42;36.72;;;7.85;;
26502;SDS011;14177;51.520;6.764;2023-07-31T05:47:09;32.17;;;8.13;;
26502;SDS011;14177;51.520;6.764;2023-07-31T05:49:37;27.58;;;6.95;;
26502;SDS011;14177;51.520;6.764;2023-07-31T05:52:04;39.42;;;8.80;;
26502;SDS011;14177;51.520;6.764;2023-07-31T05:54:31;30.05;;;7.18;;
26502;SDS011;14177;51.520;6.764;2023-07-31T05:56:59;30.70;;;8.13;;
26502;SDS011;14177;51.520;6.764;2023-07-31T05:59:26;25.13;;;5.90;;
26502;SDS011;14177;51.520;6.764;2023-07-31T06:01:53;29.05;;;6.80;;
26502;SDS011;14177;51.520;6.764;2023-07-31T06:04:20;26.65;;;6.22;;
26502;SDS011;14177;51.520;6.764;2023-07-31T06:06:51;24.73;;;6.25;;
26502;SDS011;14177;51.520;6.764;2023-07-31T06:09:18;32.90;;;6.68;;
26502;SDS011;14177;51.520;6.764;2023-07-31T06:11:46;26.65;;;6.90;;
26502;SDS011;14177;51.520;6.764;2023-07-31T06:14:13;29.77;;;7.55;;
26502;SDS011;14177;51.520;6.764;2023-07-31T06:16:40;29.63;;;7.40;;
26502;SDS011;14177;51.520;6.764;2023-07-31T06:19:08;23.98;;;6.65;;
26502;SDS011;14177;51.520;6.764;2023-07-31T06:21:34;22.95;;;6.10;;
26502;SDS011;14177;51.520;6.764;2023-07-31T06:24:04;25.10;;;6.70;;
26502;SDS011;14177;51.520;6.764;2023-07-31T06:26:32;23.77;;;6.55;;
26502;SDS011;14177;51.520;6.764;2023-07-31T06:28:59;27.25;;;7.00;;
26502;SDS011;14177;51.520;6.764;2023-07-31T06:31:26;29.10;;;6.90;;
26502;SDS011;14177;51.520;6.764;2023-07-31T06:33:53;24.65;;;6.13;;
26502;SDS011;14177;51.520;6.764;2023-07-31T06:36:20;28.05;;;6.95;;
26502;SDS011;14177;51.520;6.764;2023-07-31T06:38:48;23.20;;;6.65;;
26502;SDS011;14177;51.520;6.764;2023-07-31T06:41:15;23.13;;;6.03;;
26502;SDS011;14177;51.520;6.764;2023-07-31T06:43:42;27.10;;;6.63;;
26502;SDS011;14177;51.520;6.764;2023-07-31T06:46:09;29.50;;;7.25;;
26502;SDS011;14177;51.520;6.764;2023-07-31T06:48:37;27.80;;;6.57;;
26502;SDS011;14177;51.520;6.764;2023-07-31T06:51:04;30.60;;;6.10;;
26502;SDS011;14177;51.520;6.764;2023-07-31T06:53:31;23.58;;;5.45;;
26502;SDS011;14177;51.520;6.764;2023-07-31T06:55:58;23.48;;;5.80;;
26502;SDS011;14177;51.520;6.764;2023-07-31T06:58:25;17.95;;;5.03;;
26502;SDS011;14177;51.520;6.764;2023-07-31T07:00:52;26.42;;;5.93;;
26502;SDS011;14177;51.520;6.764;2023-07-31T07:03:19;17.73;;;5.28;;
26502;SDS011;14177;51.520;6.764;2023-07-31T07:05:46;24.77;;;5.60;;
26502;SDS011;14177;51.520;6.764;2023-07-31T07:08:13;24.40;;;6.43;;
26502;SDS011;14177;51.520;6.764;2023-07-31T07:10:40;29.05;;;5.75;;
26502;SDS011;14177;51.520;6.764;2023-07-31T07:13:07;23.75;;;6.32;;
26502;SDS011;14177;51.520;6.764;2023-07-31T07:15:35;28.98;;;6.43;;
26502;SDS011;14177;51.520;6.764;2023-07-31T07:18:02;21.58;;;5.63;;
26502;SDS011;14177;51.520;6.764;2023-07-31T07:20:29;26.08;;;6.38;;
26502;SDS011;14177;51.520;6.764;2023-07-31T07:22:56;22.83;;;6.72;;
26502;SDS011;14177;51.520;6.764;2023-07-31T07:25:23;22.23;;;6.00;;
26502;SDS011;14177;51.520;6.764;2023-07-31T07:27:50;20.30;;;5.43;;
26502;SDS011;14177;51.520;6.764;2023-07-31T07:30:17;26.67;;;6.70;;
26502;SDS011;14177;51.520;6.764;2023-07-31T07:32:44;29.38;;;7.05;;
26502;SDS011;14177;51.520;6.764;2023-07-31T07:35:11;24.42;;;6.72;;
26502;SDS011;14177;51.520;6.764;2023-07-31T07:37:38;24.52;;;6.25;;
26502;SDS011;14177;51.520;6.764;2023-07-31T07:40:05;21.25;;;5.70;;
26502;SDS011;14177;51.520;6.764;2023-07-31T07:42:33;21.75;;;6.18;;
26502;SDS011;14177;51.520;6.764;2023-07-31T07:45:00;23.60;;;6.00;;
26502;SDS011;14177;51.520;6.764;2023-07-31T07:47:27;27.23;;;6.07;;
26502;SDS011;14177;51.520;6.764;2023-07-31T07:49:54;19.42;;;5.60;;
26502;SDS011;14177;51.520;6.764;2023-07-31T07:52:21;24.00;;;5.55;;
26502;SDS011;14177;51.520;6.764;2023-07-31T07:54:48;21.80;;;4.68;;
26502;SDS011;14177;51.520;6.764;2023-07-31T07:57:16;23.73;;;5.78;;
26502;SDS011;14177;51.520;6.764;2023-07-31T07:59:43;20.85;;;5.55;;
26502;SDS011;14177;51.520;6.764;2023-07-31T08:02:10;23.73;;;5.22;;
26502;SDS011;14177;51.520;6.764;2023-07-31T08:04:37;20.55;;;4.53;;
26502;SDS011;14177;51.520;6.764;2023-07-31T08:07:04;15.63;;;4.00;;
26502;SDS011;14177;51.520;6.764;2023-07-31T08:09:31;19.75;;;4.18;;
26502;SDS011;14177;51.520;6.764;2023-07-31T08:11:58;21.88;;;5.25;;
26502;SDS011;14177;51.520;6.764;2023-07-31T08:14:29;21.73;;;4.55;;
26502;SDS011;14177;51.520;6.764;2023-07-31T08:16:58;23.90;;;5.65;;
26502;SDS011;14177;51.520;6.764;2023-07-31T08:19:26;22.00;;;5.15;;
26502;SDS011;14177;51.520;6.764;2023-07-31T08:21:54;17.92;;;4.97;;
26502;SDS011;14177;51.520;6.764;2023-07-31T08:24:23;22.02;;;4.55;;
26502;SDS011;14177;51.520;6.764;2023-07-31T08:26:50;17.65;;;4.63;;
26502;SDS011;14177;51.520;6.764;2023-07-31T08:29:17;22.45;;;5.18;;
26502;SDS011;14177;51.520;6.764;2023-07-31T08:31:44;20.83;;;4.38;;
26502;SDS011;14177;51.520;6.764;2023-07-31T08:34:11;22.05;;;5.13;;
26502;SDS011;14177;51.520;6.764;2023-07-31T08:36:38;19.88;;;5.05;;
26502;SDS011;14177;51.520;6.764;2023-07-31T08:39:06;24.40;;;6.15;;
26502;SDS011;14177;51.520;6.764;2023-07-31T08:41:39;26.65;;;5.22;;
26502;SDS011;14177;51.520;6.764;2023-07-31T08:44:07;23.00;;;6.15;;
26502;SDS011;14177;51.520;6.764;2023-07-31T08:46:34;28.63;;;5.50;;
26502;SDS011;14177;51.520;6.764;2023-07-31T08:49:03;14.07;;;3.88;;
26502;SDS011;14177;51.520;6.764;2023-07-31T08:51:33;19.90;;;4.72;;
26502;SDS011;14177;51.520;6.764;2023-07-31T08:54:01;20.65;;;4.90;;
26502;SDS011;14177;51.520;6.764;2023-07-31T08:56:32;20.33;;;4.53;;
26502;SDS011;14177;51.520;6.764;2023-07-31T08:59:01;21.17;;;4.45;;
26502;SDS011;14177;51.520;6.764;2023-07-31T09:01:31;20.45;;;4.15;;
26502;SDS011;14177;51.520;6.764;2023-07-31T09:04:10;21.13;;;5.03;;
26502;SDS011;14177;51.520;6.764;2023-07-31T09:06:40;22.65;;;5.72;;
26502;SDS011;14177;51.520;6.764;2023-07-31T09:09:08;22.55;;;4.32;;
26502;SDS011;14177;51.520;6.764;2023-07-31T09:11:35;19.75;;;4.25;;
26502;SDS011;14177;51.520;6.764;2023-07-31T09:14:03;16.85;;;4.30;;
26502;SDS011;14177;51.520;6.764;2023-07-31T09:16:35;23.25;;;5.13;;
26502;SDS011;14177;51.520;6.764;2023-07-31T09:19:22;22.80;;;5.70;;
26502;SDS011;14177;51.520;6.764;2023-07-31T09:21:56;22.42;;;5.50;;
26502;SDS011;14177;51.520;6.764;2023-07-31T09:24:29;24.90;;;7.07;;
26502;SDS011;14177;51.520;6.764;2023-07-31T09:27:00;21.55;;;5.00;;
26502;SDS011;14177;51.520;6.764;2023-07-31T09:29:28;22.38;;;6.03;;
26502;SDS011;14177;51.520;6.764;2023-07-31T09:31:56;26.15;;;6.00;;
26502;SDS011;14177;51.520;6.764;2023-07-31T09:34:29;23.92;;;5.38;;
26502;SDS011;14177;51.520;6.764;2023-07-31T09:37:07;26.42;;;5.55;;
26502;SDS011;14177;51.520;6.764;2023-07-31T09:39:45;17.92;;;5.18;;
26502;SDS011;14177;51.520;6.764;2023-07-31T09:42:14;19.48;;;4.93;;
26502;SDS011;14177;51.520;6.764;2023-07-31T09:44:51;19.63;;;5.20;;
26502;SDS011;14177;51.520;6.764;2023-07-31T09:47:21;17.33;;;4.90;;
26502;SDS011;14177;51.520;6.764;2023-07-31T09:49:53;19.08;;;5.68;;
26502;SDS011;14177;51.520;6.764;2023-07-31T09:52:20;26.33;;;5.68;;
26502;SDS011;14177;51.520;6.764;2023-07-31T09:54:47;22.85;;;5.32;;
26502;SDS011;14177;51.520;6.764;2023-07-31T09:57:14;19.13;;;5.15;;
26502;SDS011;14177;51.520;6.764;2023-07-31T09:59:44;23.70;;;5.47;;
26502;SDS011;14177;51.520;6.764;2023-07-31T10:02:14;16.23;;;4.53;;
26502;SDS011;14177;51.520;6.764;2023-07-31T10:04:51;21.88;;;5.28;;
26502;SDS011;14177;51.520;6.764;2023-07-31T10:07:24;20.65;;;4.72;;
26502;SDS011;14177;51.520;6.764;2023-07-31T10:09:54;13.90;;;3.97;;
26502;SDS011;14177;51.520;6.764;2023-07-31T10:12:28;18.83;;;4.63;;
26502;SDS011;14177;51.520;6.764;2023-07-31T10:14:58;25.45;;;5.53;;
26502;SDS011;14177;51.520;6.764;2023-07-31T10:17:26;22.45;;;6.50;;
26502;SDS011;14177;51.520;6.764;2023-07-31T10:19:56;25.27;;;6.38;;
26502;SDS011;14177;51.520;6.764;2023-07-31T10:22:29;21.70;;;5.50;;
26502;SDS011;14177;51.520;6.764;2023-07-31T10:24:58;22.52;;;4.90;;
26502;SDS011;14177;51.520;6.764;2023-07-31T10:27:26;18.38;;;5.53;;
26502;SDS011;14177;51.520;6.764;2023-07-31T10:29:54;22.17;;;5.28;;
26502;SDS011;14177;51.520;6.764;2023-07-31T10:32:24;23.00;;;4.80;;
26502;SDS011;14177;51.520;6.764;2023-07-31T10:34:53;18.88;;;4.78;;
26502;SDS011;14177;51.520;6.764;2023-07-31T10:37:22;23.60;;;4.90;;
26502;SDS011;14177;51.520;6.764;2023-07-31T10:42:27;18.60;;;5.40;;
26502;SDS011;14177;51.520;6.764;2023-07-31T10:44:57;24.25;;;4.95;;
26502;SDS011;14177;51.520;6.764;2023-07-31T10:47:26;27.27;;;5.97;;
26502;SDS011;14177;51.520;6.764;2023-07-31T10:49:54;21.48;;;4.60;;
26502;SDS011;14177;51.520;6.764;2023-07-31T10:52:48;24.15;;;5.55;;
26502;SDS011;14177;51.520;6.764;2023-07-31T10:58:09;22.33;;;5.68;;
26502;SDS011;14177;51.520;6.764;2023-07-31T11:00:47;29.05;;;6.70;;
26502;SDS011;14177;51.520;6.764;2023-07-31T11:03:17;27.45;;;5.93;;
26502;SDS011;14177;51.520;6.764;2023-07-31T11:06:00;21.60;;;5.65;;
26502;SDS011;14177;51.520;6.764;2023-07-31T11:13:30;20.90;;;5.78;;
26502;SDS011;14177;51.520;6.764;2023-07-31T11:15:59;25.35;;;5.72;;
26502;SDS011;14177;51.520;6.764;2023-07-31T11:18:27;27.48;;;7.07;;
26502;SDS011;14177;51.520;6.764;2023-07-31T11:20:54;25.42;;;6.35;;
26502;SDS011;14177;51.520;6.764;2023-07-31T11:23:21;31.08;;;5.85;;
26502;SDS011;14177;51.520;6.764;2023-07-31T11:25:49;26.67;;;6.43;;
26502;SDS011;14177;51.520;6.764;2023-07-31T11:28:18;29.30;;;7.35;;
26502;SDS011;14177;51.520;6.764;2023-07-31T11:30:46;34.00;;;8.70;;
26502;SDS011;14177;51.520;6.764;2023-07-31T11:33:13;27.45;;;6.47;;
26502;SDS011;14177;51.520;6.764;2023-07-31T11:35:49;21.00;;;5.45;;
26502;SDS011;14177;51.520;6.764;2023-07-31T11:38:24;25.58;;;6.85;;
26502;SDS011;14177;51.520;6.764;2023-07-31T11:41:03;28.45;;;7.30;;
26502;SDS011;14177;51.520;6.764;2023-07-31T11:43:31;21.35;;;6.70;;
26502;SDS011;14177;51.520;6.764;2023-07-31T11:45:59;31.15;;;8.38;;
26502;SDS011;14177;51.520;6.764;2023-07-31T11:48:32;29.35;;;7.63;;
26502;SDS011;14177;51.520;6.764;2023-07-31T11:51:06;31.13;;;8.57;;
26502;SDS011;14177;51.520;6.764;2023-07-31T11:56:18;33.45;;;9.40;;
26502;SDS011;14177;51.520;6.764;2023-07-31T11:58:47;29.00;;;6.78;;
26502;SDS011;14177;51.520;6.764;2023-07-31T12:01:18;29.17;;;6.88;;
26502;SDS011;14177;51.520;6.764;2023-07-31T12:03:48;24.98;;;6.63;;
26502;SDS011;14177;51.520;6.764;2023-07-31T12:06:17;20.27;;;4.97;;
26502;SDS011;14177;51.520;6.764;2023-07-31T12:08:44;22.48;;;5.68;;
26502;SDS011;14177;51.520;6.764;2023-07-31T12:11:11;20.48;;;4.50;;
26502;SDS011;14177;51.520;6.764;2023-07-31T12:13:38;24.40;;;5.50;;
26502;SDS011;14177;51.520;6.764;2023-07-31T12:16:05;30.50;;;7.70;;
26502;SDS011;14177;51.520;6.764;2023-07-31T12:18:35;30.40;;;7.97;;
26502;SDS011;14177;51.520;6.764;2023-07-31T12:21:08;26.83;;;5.85;;
26502;SDS011;14177;51.520;6.764;2023-07-31T12:23:37;25.20;;;6.97;;
26502;SDS011;14177;51.520;6.764;2023-07-31T12:26:11;27.90;;;7.88;;
26502;SDS011;14177;51.520;6.764;2023-07-31T12:28:44;28.90;;;7.60;;
26502;SDS011;14177;51.520;6.764;2023-07-31T12:31:20;26.35;;;6.55;;
26502;SDS011;14177;51.520;6.764;2023-07-31T12:33:50;33.47;;;7.78;;
26502;SDS011;14177;51.520;6.764;2023-07-31T12:36:20;20.95;;;5.30;;
26502;SDS011;14177;51.520;6.764;2023-07-31T12:38:50;29.85;;;6.20;;
26502;SDS011;14177;51.520;6.764;2023-07-31T12:41:18;25.10;;;5.25;;
26502;SDS011;14177;51.520;6.764;2023-07-31T12:43:45;25.00;;;6.72;;
26502;SDS011;14177;51.520;6.764;2023-07-31T12:46:12;30.58;;;7.63;;
26502;SDS011;14177;51.520;6.764;2023-07-31T12:48:40;23.38;;;6.93;;
26502;SDS011;14177;51.520;6.764;2023-07-31T12:51:07;26.13;;;6.05;;
26502;SDS011;14177;51.520;6.764;2023-07-31T12:53:34;28.25;;;6.28;;
26502;SDS011;14177;51.520;6.764;2023-07-31T12:56:02;15.55;;;4.28;;
26502;SDS011;14177;51.520;6.764;2023-07-31T12:58:29;23.58;;;5.07;;
26502;SDS011;14177;51.520;6.764;2023-07-31T13:00:57;30.15;;;7.00;;
26502;SDS011;14177;51.520;6.764;2023-07-31T13:03:24;24.55;;;5.32;;
26502;SDS011;14177;51.520;6.764;2023-07-31T13:05:51;28.35;;;6.93;;
26502;SDS011;14177;51.520;6.764;2023-07-31T13:08:19;24.02;;;6.00;;
26502;SDS011;14177;51.520;6.764;2023-07-31T13:10:46;30.52;;;9.52;;
26502;SDS011;14177;51.520;6.764;2023-07-31T13:13:13;30.48;;;6.55;;
26502;SDS011;14177;51.520;6.764;2023-07-31T13:15:40;25.98;;;6.85;;
26502;SDS011;14177;51.520;6.764;2023-07-31T13:18:08;26.15;;;6.90;;
26502;SDS011;14177;51.520;6.764;2023-07-31T13:20:35;27.75;;;6.53;;
26502;SDS011;14177;51.520;6.764;2023-07-31T13:23:02;22.33;;;6.07;;
26502;SDS011;14177;51.520;6.764;2023-07-31T13:25:29;25.10;;;6.30;;
26502;SDS011;14177;51.520;6.764;2023-07-31T13:27:56;27.45;;;6.93;;
26502;SDS011;14177;51.520;6.764;2023-07-31T13:30:27;22.67;;;6.05;;
26502;SDS011;14177;51.520;6.764;2023-07-31T13:32:54;25.90;;;6.18;;
26502;SDS011;14177;51.520;6.764;2023-07-31T13:35:21;22.50;;;5.43;;
26502;SDS011;14177;51.520;6.764;2023-07-31T13:37:48;23.73;;;6.25;;
26502;SDS011;14177;51.520;6.764;2023-07-31T13:40:14;27.05;;;6.53;;
26502;SDS011;14177;51.520;6.764;2023-07-31T13:42:42;19.88;;;5.88;;
26502;SDS011;14177;51.520;6.764;2023-07-31T13:45:09;17.50;;;4.78;;
26502;SDS011;14177;51.520;6.764;2023-07-31T13:47:36;21.35;;;5.80;;
26502;SDS011;14177;51.520;6.764;2023-07-31T13:50:04;22.70;;;5.93;;
26502;SDS011;14177;51.520;6.764;2023-07-31T13:52:31;19.23;;;4.72;;
26502;SDS011;14177;51.520;6.764;2023-07-31T13:54:58;19.30;;;5.32;;
26502;SDS011;14177;51.520;6.764;2023-07-31T13:57:25;13.80;;;5.13;;
26502;SDS011;14177;51.520;6.764;2023-07-31T13:59:52;17.38;;;5.55;;
26502;SDS011;14177;51.520;6.764;2023-07-31T14:02:19;20.83;;;5.20;;
26502;SDS011;14177;51.520;6.764;2023-07-31T14:04:46;21.25;;;5.57;;
26502;SDS011;14177;51.520;6.764;2023-07-31T14:07:13;17.40;;;4.93;;
26502;SDS011;14177;51.520;6.764;2023-07-31T14:09:40;16.83;;;5.00;;
26502;SDS011;14177;51.520;6.764;2023-07-31T14:12:07;24.88;;;6.75;;
26502;SDS011;14177;51.520;6.764;2023-07-31T14:14:34;19.17;;;5.60;;
26502;SDS011;14177;51.520;6.764;2023-07-31T14:17:01;21.35;;;5.40;;
26502;SDS011;14177;51.520;6.764;2023-07-31T14:19:28;25.20;;;6.28;;
26502;SDS011;14177;51.520;6.764;2023-07-31T14:21:58;22.60;;;7.68;;
26502;SDS011;14177;51.520;6.764;2023-07-31T14:24:37;22.42;;;6.28;;
26502;SDS011;14177;51.520;6.764;2023-07-31T14:27:05;26.58;;;5.97;;
26502;SDS011;14177;51.520;6.764;2023-07-31T14:29:32;25.00;;;6.70;;
26502;SDS011;14177;51.520;6.764;2023-07-31T14:31:59;21.88;;;6.13;;
26502;SDS011;14177;51.520;6.764;2023-07-31T14:34:26;22.35;;;5.40;;
26502;SDS011;14177;51.520;6.764;2023-07-31T14:36:53;24.25;;;7.18;;
26502;SDS011;14177;51.520;6.764;2023-07-31T14:39:20;22.23;;;6.75;;
26502;SDS011;14177;51.520;6.764;2023-07-31T14:41:47;25.80;;;8.18;;
26502;SDS011;14177;51.520;6.764;2023-07-31T14:44:14;26.42;;;6.05;;
26502;SDS011;14177;51.520;6.764;2023-07-31T14:46:42;21.48;;;5.97;;
26502;SDS011;14177;51.520;6.764;2023-07-31T14:49:09;23.70;;;6.38;;
26502;SDS011;14177;51.520;6.764;2023-07-31T14:51:36;23.65;;;6.93;;
26502;SDS011;14177;51.520;6.764;2023-07-31T14:54:03;25.00;;;6.57;;
26502;SDS011;14177;51.520;6.764;2023-07-31T14:56:30;23.85;;;5.90;;
26502;SDS011;14177;51.520;6.764;2023-07-31T14:58:57;30.58;;;7.10;;
26502;SDS011;14177;51.520;6.764;2023-07-31T15:01:24;19.20;;;5.45;;